Terminal Aerodrome Forecast
Issued by NWS Pocatello, ID

Home | Current Version | Previous Version | Text Only | Print | Product List | Glossary On
Versions: 1 2 3 4 5 6 7 8 9 10 11 12 13 14
000
FTUS45 KPIH 261720
TAFPIH
TAF
KPIH 261720Z 2618/2718 25011KT P6SM SCT060 SCT100
     FM270800 23010KT P6SM SCT150
     FM271400 24011KT P6SM -SHRA VCTS SCT050 BKN080CB=

USA.gov is the U.S. government's official web portal to all federal, state and local government web resources and services.